Time;durP1;ratioP1;P1;durP2;ratioP2;P2;SDS_P1;SDS_P2;PMS_P1;PMS_P2;Temp;Humidity;BMP_temperature;BMP_pressure;BME280_temperature;BME280_humidity;BME280_pressure;Samples;Min_cycle;Max_cycle;Signal;HPM_P1;HPM_P2
2021/04/13 00:01:15;;;;;;;1.98;1.00;;;;;;;22.59;48.63;101833.66;4993476;28;20022;-59
2021/04/13 00:04:05;;;;;;;3.55;1.38;;;;;;;22.59;48.71;101839.13;4993746;28;20026;-60
2021/04/13 00:06:41;;;;;;;2.53;1.00;;;;;;;22.56;48.90;101836.75;4992875;28;20545;-60
2021/04/13 00:09:18;;;;;;;2.65;1.17;;;;;;;22.55;48.69;101835.03;4993227;28;20496;-59
2021/04/13 00:11:47;;;;;;;2.28;0.95;;;;;;;22.52;48.82;101839.84;4992593;28;20030;-60
2021/04/13 00:14:16;;;;;;;2.08;1.17;;;;;;;22.51;48.92;101835.41;4993261;28;20030;-60
2021/04/13 00:16:43;;;;;;;3.30;1.30;;;;;;;22.48;48.61;101837.59;4993306;28;20105;-60
2021/04/13 00:19:09;;;;;;;2.33;1.02;;;;;;;22.50;48.69;101841.03;4993071;28;20068;-60
2021/04/13 00:21:42;;;;;;;4.07;1.38;;;;;;;22.46;48.70;101840.53;4993237;28;20022;-59
2021/04/13 00:24:14;;;;;;;2.97;1.50;;;;;;;22.43;48.53;101832.66;4993171;28;20446;-60
2021/04/13 00:26:47;;;;;;;3.60;1.50;;;;;;;22.45;48.78;101849.78;4993218;28;20524;-60
2021/04/13 00:29:17;;;;;;;2.80;1.20;;;;;;;22.39;49.36;101839.53;4992887;28;20033;-60
2021/04/13 00:31:48;;;;;;;1.77;1.00;;;;;;;22.41;49.86;101851.16;4992921;28;20049;-60
2021/04/13 00:34:27;;;;;;;3.03;1.27;;;;;;;22.42;49.84;101844.66;4992993;28;20393;-60
2021/04/13 00:37:08;;;;;;;2.92;1.00;;;;;;;22.43;50.55;101846.38;4992836;28;20018;-60
2021/04/13 00:39:34;;;;;;;2.92;1.48;;;;;;;22.42;50.30;101850.13;4993098;28;20050;-60
2021/04/13 00:42:02;;;;;;;3.95;1.98;;;;;;;22.44;51.79;101848.06;4993002;28;20058;-60
2021/04/13 00:44:32;;;;;;;1.98;1.10;;;;;;;22.42;51.62;101847.41;4992956;28;20031;-60
2021/04/13 00:47:05;;;;;;;2.83;1.20;;;;;;;22.44;52.09;101848.06;4992765;28;20062;-60
2021/04/13 00:49:35;;;;;;;2.88;0.93;;;;;;;22.48;52.98;101843.09;4993233;28;20023;-60
2021/04/13 00:52:11;;;;;;;2.65;1.13;;;;;;;22.48;52.27;101854.06;4992924;28;20109;-60
2021/04/13 00:54:51;;;;;;;3.90;1.42;;;;;;;22.48;52.72;101854.06;4992910;28;20037;-61
2021/04/13 00:57:25;;;;;;;3.08;0.90;;;;;;;22.47;52.62;101853.19;4953962;28;20202;-59
2021/04/13 00:59:51;;;;;;;3.90;1.65;;;;;;;22.50;52.70;101847.38;4954249;28;20122;-60
2021/04/13 01:02:27;;;;;;;3.55;1.27;;;;;;;22.48;53.20;101852.16;4953871;28;20067;-60
2021/04/13 01:04:55;;;;;;;2.88;1.10;;;;;;;22.49;52.42;101855.75;4954126;28;20475;-60
2021/04/13 01:07:39;;;;;;;2.47;1.13;;;;;;;22.48;52.75;101854.06;4953545;28;20214;-61
2021/04/13 01:10:10;;;;;;;1.77;1.23;;;;;;;22.50;52.73;101847.38;4954105;28;20031;-59
2021/04/13 01:12:58;;;;;;;4.07;1.55;;;;;;;22.58;52.64;101851.13;4954173;28;20078;-60
2021/04/13 01:15:23;;;;;;;3.22;1.33;;;;;;;22.58;51.81;101853.88;4932275;29;20046;-60
2021/04/13 01:17:49;;;;;;;3.33;1.35;;;;;;;22.59;52.60;101856.44;4932435;29;20036;-59
2021/04/13 01:20:44;;;;;;;4.05;1.60;;;;;;;22.64;52.36;101855.91;4932341;29;20156;-60
2021/04/13 01:23:20;;;;;;;3.65;1.40;;;;;;;22.64;51.94;101862.22;4932981;29;20027;-60
2021/04/13 01:25:53;;;;;;;2.25;1.50;;;;;;;22.66;51.93;101856.56;4936003;29;20032;-60
2021/04/13 01:28:23;;;;;;;4.60;1.33;;;;;;;22.69;52.05;101862.59;4935790;29;20055;-60
2021/04/13 01:30:55;;;;;;;2.38;1.38;;;;;;;22.72;52.42;101850.41;4935964;29;20138;-60
2021/04/13 01:33:51;;;;;;;5.30;1.42;;;;;;;22.74;52.24;101843.72;4935762;29;20040;-60
2021/04/13 01:36:25;;;;;;;2.90;1.30;;;;;;;22.62;51.89;101847.00;4935414;29;20035;-60
2021/04/13 01:39:12;;;;;;;1.73;1.13;;;;;;;22.57;52.64;101852.16;4935371;29;20040;-60
2021/04/13 01:41:57;;;;;;;2.95;0.90;;;;;;;22.48;53.04;101857.66;4935470;29;20040;-59
2021/04/13 01:44:45;;;;;;;3.17;1.15;;;;;;;22.47;53.10;101855.09;4935620;29;20040;-60
2021/04/13 01:47:15;;;;;;;1.92;1.33;;;;;;;22.44;53.07;101856.28;4935332;29;20059;-60
2021/04/13 01:49:47;;;;;;;2.13;1.10;;;;;;;22.31;52.32;101842.25;4935705;29;20046;-60
2021/04/13 01:52:21;;;;;;;2.38;1.13;;;;;;;22.29;51.99;101849.81;4943595;29;20039;-61
2021/04/13 01:54:47;;;;;;;1.83;0.90;;;;;;;22.23;51.47;101856.00;4957329;28;20035;-60
2021/04/13 01:57:30;;;;;;;1.95;1.10;;;;;;;22.21;51.23;101852.56;4995589;28;20034;-60
2021/04/13 02:00:08;;;;;;;3.47;1.10;;;;;;;22.18;50.71;101852.91;4995773;28;20034;-60
2021/04/13 02:02:39;;;;;;;1.88;1.20;;;;;;;22.19;50.84;101854.63;4995703;28;20042;-60
2021/04/13 02:05:11;;;;;;;3.05;1.20;;;;;;;22.17;50.89;101856.66;4995628;28;20105;-60
2021/04/13 02:10:26;;;;;;;3.45;1.25;;;;;;;22.14;50.96;101848.78;4995515;28;20030;-60
2021/04/13 02:12:56;;;;;;;2.28;1.08;;;;;;;22.13;50.33;101849.81;4995519;28;20029;-60
2021/04/13 02:15:53;;;;;;;2.83;1.33;;;;;;;22.11;50.54;101846.41;4995344;28;20038;-60
2021/04/13 02:18:24;;;;;;;2.08;1.25;;;;;;;22.11;49.92;101852.75;4995056;28;20076;-60
2021/04/13 02:20:52;;;;;;;1.85;0.95;;;;;;;22.11;49.76;101850.00;4995370;28;20096;-59
2021/04/13 02:23:24;;;;;;;2.17;1.30;;;;;;;22.11;50.28;101851.88;4995102;28;20033;-60
2021/04/13 02:25:50;;;;;;;2.55;1.25;;;;;;;22.08;49.53;101847.59;4995141;28;20034;-60
2021/04/13 02:28:17;;;;;;;2.90;1.20;;;;;;;22.13;49.78;101847.09;4994725;28;20076;-60
2021/04/13 02:30:46;;;;;;;3.63;1.20;;;;;;;22.12;49.95;101853.59;4995143;28;20022;-60
2021/04/13 02:33:17;;;;;;;3.53;1.45;;;;;;;22.10;49.23;101861.13;4995027;28;20108;-60
2021/04/13 02:35:43;;;;;;;2.35;1.33;;;;;;;22.05;49.92;101850.69;4994187;28;20034;-60
2021/04/13 02:38:16;;;;;;;2.50;1.23;;;;;;;22.05;49.68;101852.56;4994706;28;20493;-59
2021/04/13 02:40:57;;;;;;;2.95;1.13;;;;;;;22.05;50.70;101858.91;4994977;28;20026;-60
2021/04/13 02:43:28;;;;;;;3.72;1.75;;;;;;;22.02;50.70;101848.28;4994782;28;20346;-60
2021/04/13 02:45:58;;;;;;;2.28;1.05;;;;;;;22.08;51.09;101864.03;4994915;28;20453;-60
2021/04/13 02:48:32;;;;;;;3.65;1.35;;;;;;;22.10;51.55;101861.13;4994736;28;20057;-60
2021/04/13 02:51:05;;;;;;;;;;;;;;;22.08;51.81;101864.03;4995209;28;20033;-59
2021/04/13 02:53:42;;;;;;;2.35;1.10;;;;;;;22.09;52.24;101867.63;4994740;28;19917;-60
2021/04/13 02:56:13;;;;;;;2.40;1.38;;;;;;;22.10;52.54;101861.13;4994365;28;20501;-59
2021/04/13 02:58:48;;;;;;;3.25;1.27;;;;;;;22.12;52.32;101854.44;4994501;28;20386;-60
2021/04/13 03:01:14;;;;;;;2.85;1.30;;;;;;;22.10;53.38;101859.25;4994410;28;20041;-60
2021/04/13 03:03:43;;;;;;;2.47;1.20;;;;;;;22.12;52.77;101853.59;4994597;28;20056;-60
2021/04/13 03:06:08;;;;;;;2.53;0.82;;;;;;;22.12;53.07;101861.81;4994327;28;20029;-60
2021/04/13 03:08:37;;;;;;;3.08;1.27;;;;;;;22.14;53.19;101867.97;4994204;28;20030;-60
2021/04/13 03:11:13;;;;;;;3.05;1.20;;;;;;;22.14;53.63;101863.34;4994393;28;20027;-60
2021/04/13 03:13:41;;;;;;;2.70;1.35;;;;;;;22.14;53.33;101832.34;4994327;28;20026;-60
2021/04/13 03:16:06;;;;;;;2.55;1.48;;;;;;;22.20;53.60;101838.03;4994200;28;20030;-60
2021/04/13 03:18:42;;;;;;;3.85;1.60;;;;;;;22.24;53.36;101846.75;4994195;28;20034;-59
2021/04/13 03:21:29;;;;;;;3.63;1.27;;;;;;;22.24;53.68;101840.41;4993982;28;20045;-60
2021/04/13 03:23:58;;;;;;;3.53;1.38;;;;;;;22.28;53.80;101839.88;4992836;28;20041;-59
2021/04/13 03:26:30;;;;;;;2.78;1.27;;;;;;;22.29;53.56;101843.47;4993980;28;20053;-60
2021/04/13 03:29:11;;;;;;;4.18;1.40;;;;;;;22.30;53.09;101835.06;4977916;28;20030;-60
2021/04/13 03:31:38;;;;;;;2.08;1.00;;;;;;;22.32;53.09;101833.00;4974508;28;20092;-59
2021/04/13 03:34:05;;;;;;;3.90;1.33;;;;;;;22.34;53.51;101831.00;4983050;28;20096;-60
2021/04/13 03:36:31;;;;;;;4.07;1.63;;;;;;;22.36;52.81;101839.88;4993720;28;20462;-60
2021/04/13 03:39:03;;;;;;;3.83;1.73;;;;;;;22.39;53.12;101827.72;4993976;28;20049;-60
2021/04/13 03:41:31;;;;;;;5.25;1.58;;;;;;;22.42;53.28;101828.22;4994095;28;20034;-59
2021/04/13 03:44:01;;;;;;;2.72;1.35;;;;;;;22.33;53.21;101828.38;4993807;28;20366;-60
2021/04/13 03:46:33;;;;;;;3.10;1.10;;;;;;;22.26;53.78;101843.81;4993520;28;20049;-60
2021/04/13 03:48:59;;;;;;;2.95;1.27;;;;;;;22.19;54.16;101832.72;4993614;28;20611;-60
2021/04/13 03:51:28;;;;;;;1.30;1.20;;;;;;;22.19;54.38;101829.97;4993438;28;20026;-60
2021/04/13 03:53:54;;;;;;;2.38;1.10;;;;;;;22.29;54.58;101829.78;4993521;28;20045;-59
2021/04/13 03:56:22;;;;;;;3.00;1.20;;;;;;;22.11;54.64;101832.72;4993257;28;20044;-60
2021/04/13 03:58:51;;;;;;;2.67;1.20;;;;;;;22.08;53.70;101830.31;4993487;28;20156;-60
2021/04/13 04:01:21;;;;;;;2.55;1.38;;;;;;;22.04;53.82;101839.88;4993362;28;20117;-60
2021/04/13 04:03:54;;;;;;;2.80;0.90;;;;;;;23.29;49.96;101834.56;4993530;28;20034;-59
2021/04/13 04:06:50;;;;;;;3.78;1.25;;;;;;;23.68;48.61;101831.78;4993102;28;20030;-60
2021/04/13 04:09:19;;;;;;;2.50;1.10;;;;;;;23.93;47.92;101828.84;4973861;28;20481;-60
2021/04/13 04:11:46;;;;;;;5.38;1.60;;;;;;;24.06;48.25;101840.06;4974045;28;20027;-60
2021/04/13 04:14:16;;;;;;;3.38;1.55;;;;;;;24.19;47.70;101834.78;4973842;28;20485;-60
2021/04/13 04:16:41;;;;;;;2.60;1.40;;;;;;;24.29;47.84;101834.53;4973921;28;20463;-60
2021/04/13 04:19:17;;;;;;;2.38;1.25;;;;;;;24.36;47.80;101840.16;4973950;28;20031;-60
2021/04/13 04:21:57;;;;;;;5.13;1.55;;;;;;;24.38;47.20;101838.06;4988764;28;20541;-59
2021/04/13 04:24:30;;;;;;;3.53;1.30;;;;;;;24.40;47.33;101830.50;4973723;28;20034;-60
2021/04/13 04:27:00;;;;;;;5.00;1.33;;;;;;;24.39;47.88;101823.28;4973816;28;20030;-60
2021/04/13 04:29:29;;;;;;;4.32;1.50;;;;;;;24.48;47.29;101830.38;4973685;28;20027;-60
2021/04/13 04:31:55;;;;;;;2.90;1.17;;;;;;;24.52;47.16;101832.59;4982106;28;20386;-60
2021/04/13 04:34:20;;;;;;;2.25;1.10;;;;;;;24.57;47.35;101832.88;4993029;28;20382;-60
2021/04/13 04:36:55;;;;;;;1.03;0.70;;;;;;;24.60;46.31;101831.63;4992811;28;20482;-60
2021/04/13 04:39:28;;;;;;;1.65;1.08;;;;;;;24.59;46.41;101841.78;5008240;28;20868;-59
2021/04/13 04:42:29;;;;;;;4.18;1.10;;;;;;;24.61;46.49;101838.84;4993045;28;20128;-60
2021/04/13 04:45:11;;;;;;;2.72;1.10;;;;;;;24.71;47.45;101844.91;4992917;28;20042;-60
2021/04/13 04:47:38;;;;;;;1.92;1.27;;;;;;;24.74;48.41;101839.03;4992833;28;20470;-60
2021/04/13 04:50:09;;;;;;;3.92;1.38;;;;;;;24.80;48.96;101838.28;4991951;28;20382;-60
2021/04/13 04:52:35;;;;;;;2.95;1.10;;;;;;;24.85;48.48;101846.78;4993042;28;20105;-59
2021/04/13 04:55:01;;;;;;;2.65;1.23;;;;;;;24.84;48.99;101822.22;4992720;28;20562;-60
2021/04/13 04:57:27;;;;;;;1.80;0.93;;;;;;;24.87;48.46;101833.72;4992897;28;20030;-59
2021/04/13 04:59:52;;;;;;;2.28;1.33;;;;;;;24.90;49.76;101827.84;4996269;28;20385;-60
2021/04/13 05:02:17;;;;;;;2.65;1.08;;;;;;;24.94;49.62;101832.94;4996613;28;20041;-60
2021/04/13 05:04:45;;;;;;;2.55;1.40;;;;;;;24.95;49.18;101826.41;4996566;28;20026;-60
2021/04/13 05:07:10;;;;;;;2.28;1.17;;;;;;;25.00;49.04;101826.72;4996327;28;20414;-60
2021/04/13 05:09:36;;;;;;;3.00;1.35;;;;;;;25.00;49.13;101821.19;4996776;28;20150;-59
2021/04/13 05:12:02;;;;;;;2.83;1.15;;;;;;;25.04;48.90;101828.06;4996661;28;20122;-60
2021/04/13 05:14:27;;;;;;;3.22;1.40;;;;;;;25.08;49.14;101829.38;4996468;28;20120;-59
2021/04/13 05:16:53;;;;;;;2.92;1.40;;;;;;;25.08;49.52;101823.88;4996599;28;20022;-60
2021/04/13 05:19:18;;;;;;;3.40;1.33;;;;;;;25.12;49.20;101830.69;4996201;28;20026;-59
2021/04/13 05:21:44;;;;;;;3.03;1.52;;;;;;;25.16;49.22;101829.25;4996483;28;20023;-60
2021/04/13 05:24:10;;;;;;;3.03;1.30;;;;;;;25.16;48.90;101832.84;4996311;28;20019;-60
2021/04/13 05:26:36;;;;;;;4.60;1.33;;;;;;;25.15;48.51;101825.63;4996496;28;20054;-59
2021/04/13 05:29:02;;;;;;;3.00;1.88;;;;;;;25.17;47.96;101822.69;4996467;28;20050;-60
2021/04/13 05:31:27;;;;;;;3.15;1.10;;;;;;;25.14;48.55;101821.19;4996242;28;20073;-59
2021/04/13 05:33:52;;;;;;;2.33;1.25;;;;;;;25.16;48.21;101815.47;4996326;28;20026;-60
2021/04/13 05:36:18;;;;;;;2.10;1.08;;;;;;;25.17;47.97;101817.19;4995814;28;20298;-59
2021/04/13 05:38:44;;;;;;;2.40;1.17;;;;;;;25.11;47.99;101817.97;4996039;28;20040;-60
2021/04/13 05:41:12;;;;;;;3.85;1.70;;;;;;;25.13;47.90;101815.88;4995956;28;20026;-59
2021/04/13 05:43:38;;;;;;;3.83;1.42;;;;;;;25.16;48.38;101832.00;4996341;28;20034;-60
2021/04/13 05:46:05;;;;;;;2.97;1.58;;;;;;;25.22;48.21;101834.00;4995972;28;20026;-59
2021/04/13 05:48:31;;;;;;;1.85;1.48;;;;;;;25.18;48.57;101832.66;4996309;28;20023;-59
2021/04/13 05:50:57;;;;;;;4.32;1.38;;;;;;;25.16;48.46;101832.00;4996018;28;20049;-60
2021/04/13 05:53:23;;;;;;;4.32;1.58;;;;;;;25.17;49.01;101828.19;4996100;28;20026;-59
2021/04/13 05:55:51;;;;;;;2.60;1.55;;;;;;;25.24;48.94;101829.13;4995699;28;20532;-59
2021/04/13 05:58:20;;;;;;;2.97;1.17;;;;;;;25.23;48.84;101821.94;4995527;28;20018;-59
2021/04/13 06:00:50;;;;;;;3.97;1.80;;;;;;;25.26;49.00;101816.03;4996090;28;20048;-60
2021/04/13 06:03:18;;;;;;;3.90;1.90;;;;;;;25.28;48.84;101802.94;4995543;28;20116;-60
2021/04/13 06:05:44;;;;;;;3.10;2.05;;;;;;;25.31;49.46;101824.56;4995738;28;20031;-60
2021/04/13 06:08:12;;;;;;;3.10;1.95;;;;;;;25.34;49.01;101824.16;4995150;28;20033;-60
2021/04/13 06:10:38;;;;;;;4.30;1.85;;;;;;;25.33;48.71;101833.47;4994339;28;20026;-59
2021/04/13 06:13:05;;;;;;;4.85;2.47;;;;;;;25.31;49.22;101816.28;4992414;28;20429;-60
2021/04/13 06:15:32;;;;;;;3.88;2.00;;;;;;;25.32;49.80;101820.75;4994729;28;20061;-59
2021/04/13 06:17:58;;;;;;;4.47;1.58;;;;;;;25.41;49.40;101830.59;4994692;28;20688;-59
2021/04/13 06:20:25;;;;;;;3.63;1.90;;;;;;;25.51;49.18;101835.78;4994293;28;20030;-59
2021/04/13 06:22:51;;;;;;;4.60;1.63;;;;;;;25.55;48.80;101836.28;4994961;28;20382;-59
2021/04/13 06:25:18;;;;;;;5.18;2.08;;;;;;;25.61;49.01;101835.47;4994752;28;20037;-59
2021/04/13 06:27:44;;;;;;;4.72;1.90;;;;;;;25.60;49.86;101833.78;4993292;28;20022;-59
2021/04/13 06:30:10;;;;;;;6.22;2.55;;;;;;;25.59;48.88;101841.19;4993681;28;20026;-60
2021/04/13 06:32:35;;;;;;;4.25;1.70;;;;;;;25.60;50.09;101823.59;4990358;28;20525;-59
2021/04/13 06:35:00;;;;;;;3.70;1.30;;;;;;;25.56;50.44;101827.81;4986508;28;20027;-60
2021/04/13 06:37:26;;;;;;;2.88;1.27;;;;;;;25.50;50.87;101831.31;4983628;28;20022;-60
2021/04/13 06:39:52;;;;;;;3.47;1.20;;;;;;;25.41;50.18;101830.59;4984894;28;20018;-60
2021/04/13 06:42:41;;;;;;;3.38;1.60;;;;;;;25.31;51.84;101840.22;4978079;28;21589;-60
2021/04/13 06:45:26;;;;;;;2.90;1.13;;;;;;;25.29;51.25;101843.16;4994479;28;20034;-60
2021/04/13 06:48:36;;;;;;;2.22;1.63;;;;;;;25.22;51.33;101835.88;4994849;28;20367;-59
2021/04/13 06:51:07;;;;;;;3.47;1.35;;;;;;;25.17;50.89;101836.44;4993729;28;20500;-60
2021/04/13 06:54:05;;;;;;;3.42;1.73;;;;;;;25.14;51.20;101834.09;4985967;28;20034;-60
2021/04/13 06:56:43;;;;;;;3.47;1.60;;;;;;;25.16;50.43;101837.50;5007437;28;20050;-60
2021/04/13 06:59:37;;;;;;;2.85;1.52;;;;;;;25.17;50.24;101841.94;4988403;28;20027;-60
2021/04/13 07:02:12;;;;;;;3.55;1.60;;;;;;;25.17;50.83;101839.19;4992952;28;20030;-60
2021/04/13 07:04:50;;;;;;;3.03;1.38;;;;;;;25.13;50.47;101840.63;4986979;28;20046;-61
2021/04/13 07:07:37;;;;;;;3.03;1.20;;;;;;;25.11;50.14;101799.56;4986775;28;20026;-60
2021/04/13 07:10:17;;;;;;;2.20;1.23;;;;;;;25.17;49.16;101807.03;4985578;28;20025;-60
2021/04/13 07:12:48;;;;;;;4.10;1.52;;;;;;;25.09;49.18;101803.56;4986347;28;20033;-60
2021/04/13 07:15:21;;;;;;;3.33;1.60;;;;;;;25.06;48.98;101804.81;4986932;28;20041;-59
2021/04/13 07:17:55;;;;;;;3.85;1.60;;;;;;;25.09;48.87;101847.56;4986856;28;20038;-61
2021/04/13 07:20:23;;;;;;;2.30;1.50;;;;;;;25.14;48.42;101845.09;5006941;28;20062;-60
2021/04/13 07:23:08;;;;;;;1.67;1.13;;;;;;;25.11;49.53;101851.00;4985824;28;20045;-60
2021/04/13 07:25:42;;;;;;;2.28;1.48;;;;;;;25.11;48.53;101845.47;4985393;28;20038;-60
2021/04/13 07:28:13;;;;;;;3.05;1.27;;;;;;;25.12;48.69;101858.19;4986559;28;20034;-60
2021/04/13 07:30:44;;;;;;;3.97;1.60;;;;;;;25.18;48.81;101868.41;4985691;28;20033;-59
2021/04/13 07:33:18;;;;;;;3.75;1.50;;;;;;;25.19;48.79;101870.13;4986811;28;20133;-60
2021/04/13 07:35:43;;;;;;;3.65;1.85;;;;;;;25.21;48.87;101862.56;4985740;28;20022;-60
2021/04/13 07:38:15;;;;;;;3.97;1.40;;;;;;;25.25;48.65;101874.88;4991611;28;20038;-60
2021/04/13 07:40:44;;;;;;;2.55;1.50;;;;;;;25.21;48.91;101859.81;4987279;28;20030;-60
2021/04/13 07:43:09;;;;;;;2.10;1.45;;;;;;;25.23;48.66;101868.72;4989586;28;20534;-60
2021/04/13 07:46:07;;;;;;;2.67;1.50;;;;;;;25.23;49.27;101865.97;4992838;28;20030;-60
2021/04/13 07:49:07;;;;;;;3.60;1.48;;;;;;;25.24;49.40;101862.16;4991166;28;20341;-60
2021/04/13 07:51:51;;;;;;;3.58;1.30;;;;;;;25.28;49.55;101863.47;4981187;28;20061;-60
2021/04/13 07:54:25;;;;;;;3.13;1.52;;;;;;;25.21;48.32;101868.06;5004197;23;20080;-59
2021/04/13 07:56:57;;;;;;;3.63;1.90;;;;;;;25.26;48.22;101859.22;5049475;28;20036;-60
2021/04/13 07:59:41;;;;;;;2.65;1.02;;;;;;;25.21;48.04;101870.81;5050577;28;20029;-59
2021/04/13 08:02:07;;;;;;;2.67;1.30;;;;;;;25.24;47.99;101861.31;5051903;28;20397;-60
2021/04/13 08:04:32;;;;;;;4.00;1.42;;;;;;;25.27;48.11;101861.78;5052414;28;20066;-60
2021/04/13 08:07:22;;;;;;;3.78;1.42;;;;;;;25.29;48.62;101865.19;5051696;28;20028;-59
2021/04/13 08:10:04;;;;;;;3.67;1.77;;;;;;;25.35;47.43;101878.16;5052641;28;20020;-60
2021/04/13 08:12:32;;;;;;;4.57;1.95;;;;;;;25.33;48.35;101872.00;5033889;28;20032;-59
2021/04/13 08:15:08;;;;;;;2.25;1.35;;;;;;;25.37;47.59;101834.81;5069116;28;20388;-60
2021/04/13 08:17:53;;;;;;;2.72;1.42;;;;;;;25.38;48.17;101836.50;5050741;28;20028;-60
2021/04/13 08:20:31;;;;;;;2.70;1.30;;;;;;;25.34;47.96;101834.31;5050868;28;20115;-59
2021/04/13 08:23:03;;;;;;;2.45;1.50;;;;;;;25.40;48.17;101864.69;5050223;28;20078;-59
2021/04/13 08:25:46;;;;;;;3.65;1.63;;;;;;;25.43;47.82;101871.69;5050948;28;20017;-59
2021/04/13 08:28:11;;;;;;;2.08;1.40;;;;;;;25.39;48.17;101865.75;5055088;28;20036;-60
2021/04/13 08:30:49;;;;;;;2.77;1.50;;;;;;;25.45;48.62;101864.97;5053029;28;20396;-60
2021/04/13 08:33:34;;;;;;;3.35;1.48;;;;;;;25.48;48.62;101861.81;5049087;28;20361;-59
2021/04/13 08:36:16;;;;;;;3.25;1.10;;;;;;;25.49;49.91;101869.00;5047944;28;20040;-60
2021/04/13 08:39:04;;;;;;;2.92;1.38;;;;;;;25.45;48.87;101864.09;5052616;28;20112;-60
2021/04/13 08:41:40;;;;;;;4.25;1.45;;;;;;;25.43;49.78;101871.69;5051810;28;20409;-59
2021/04/13 08:44:33;;;;;;;2.95;1.38;;;;;;;25.52;49.23;101866.91;5051545;28;20403;-60
2021/04/13 08:47:12;;;;;;;2.63;1.17;;;;;;;25.57;49.69;101870.81;5052582;28;20040;-60
2021/04/13 08:49:42;;;;;;;4.18;1.83;;;;;;;25.54;50.58;101867.59;5050989;28;20033;-60
2021/04/13 08:52:44;;;;;;;3.88;1.65;;;;;;;25.50;50.05;101862.47;5048487;28;20032;-60
2021/04/13 08:55:21;;;;;;;4.55;2.17;;;;;;;25.52;50.37;101855.91;5050159;28;20074;-60
2021/04/13 08:58:04;;;;;;;5.65;2.00;;;;;;;25.54;49.94;101860.19;5032893;28;20030;-60
2021/04/13 09:00:38;;;;;;;5.57;2.10;;;;;;;25.58;50.26;101863.41;5067289;28;20036;-60
2021/04/13 09:03:09;;;;;;;3.00;1.48;;;;;;;25.58;50.29;101858.75;5067922;28;20203;-60
2021/04/13 09:05:38;;;;;;;5.20;2.00;;;;;;;25.61;50.39;101857.50;5051975;28;20033;-60
2021/04/13 09:08:13;;;;;;;3.28;1.63;;;;;;;25.57;50.01;101861.69;5048415;28;20517;-61
2021/04/13 09:11:03;;;;;;;3.72;1.77;;;;;;;25.66;50.09;101861.38;5050295;28;20029;-60
2021/04/13 09:13:35;;;;;;;4.22;1.80;;;;;;;25.71;50.07;101858.06;5047883;28;20025;-60
2021/04/13 09:16:06;;;;;;;4.05;1.92;;;;;;;25.67;50.11;101867.72;5051835;28;20086;-60
2021/04/13 09:18:47;;;;;;;4.88;1.65;;;;;;;25.69;49.77;101861.00;5055129;28;20021;-60
2021/04/13 09:21:25;;;;;;;2.97;1.60;;;;;;;25.71;50.24;101858.06;5056319;28;20039;-60
2021/04/13 09:24:05;;;;;;;2.72;1.40;;;;;;;25.68;50.35;101869.47;5047791;28;20116;-60
2021/04/13 09:26:59;;;;;;;3.03;1.45;;;;;;;25.63;49.83;101855.41;5064159;28;20024;-61
2021/04/13 09:29:38;;;;;;;5.63;1.73;;;;;;;25.61;50.17;101863.00;5050453;28;20067;-60
2021/04/13 09:32:31;;;;;;;4.63;1.40;;;;;;;25.57;49.56;101845.19;5047457;28;20020;-60
2021/04/13 09:35:04;;;;;;;3.40;1.70;;;;;;;25.60;49.27;101851.16;5042806;28;20492;-60
2021/04/13 09:37:35;;;;;;;3.65;1.92;;;;;;;25.59;49.02;101859.59;5047880;28;20032;-59
2021/04/13 09:40:19;;;;;;;5.57;1.60;;;;;;;25.57;49.25;101862.56;5051412;28;20036;-60
2021/04/13 09:43:21;;;;;;;6.68;2.30;;;;;;;25.60;49.29;101850.28;5050414;28;20047;-60
2021/04/13 09:45:51;;;;;;;4.55;1.60;;;;;;;25.59;48.89;101854.09;5068216;28;20485;-59
2021/04/13 09:48:39;;;;;;;3.00;1.60;;;;;;;25.63;48.48;101849.91;5052296;28;20396;-59
2021/04/13 09:51:26;;;;;;;2.47;1.30;;;;;;;25.57;49.16;101856.19;5040364;28;20468;-59
2021/04/13 09:53:57;;;;;;;3.47;1.40;;;;;;;25.57;48.90;101856.19;5053595;28;20100;-59
2021/04/13 09:56:49;;;;;;;4.40;1.60;;;;;;;25.54;48.53;101853.84;5053717;28;20116;-60
2021/04/13 09:59:51;;;;;;;3.15;1.50;;;;;;;25.47;48.74;101846.34;5053929;28;20033;-59
2021/04/13 10:02:54;;;;;;;3.70;1.60;;;;;;;25.53;47.79;101854.84;5054277;28;20029;-59
2021/04/13 10:05:27;;;;;;;3.85;1.58;;;;;;;25.56;48.59;101851.75;5056391;28;20025;-60
2021/04/13 10:08:06;;;;;;;4.22;1.88;;;;;;;25.61;48.10;101847.34;5054185;28;20020;-59
2021/04/13 10:10:36;;;;;;;4.55;1.90;;;;;;;25.63;49.50;101844.38;5064373;28;20029;-59
2021/04/13 10:13:11;;;;;;;4.63;1.80;;;;;;;25.69;48.80;101840.88;5053639;28;20025;-59
2021/04/13 10:15:59;;;;;;;5.32;2.03;;;;;;;25.68;49.70;101833.66;5052229;28;20028;-59
2021/04/13 10:18:46;;;;;;;6.63;2.33;;;;;;;25.72;49.10;101837.75;5053153;28;20060;-60
2021/04/13 10:21:49;;;;;;;4.55;1.80;;;;;;;25.69;50.00;101833.47;5051784;28;20052;-59
2021/04/13 10:24:48;;;;;;;3.10;1.58;;;;;;;25.76;48.08;101834.41;5068358;28;20029;-60
2021/04/13 10:27:53;;;;;;;3.15;1.60;;;;;;;25.62;48.86;101842.69;5053054;28;20126;-60
2021/04/13 10:30:43;;;;;;;3.77;1.57;;;;;;;25.53;48.10;101847.47;5010381;28;20034;-60
2021/04/13 10:33:27;;;;;;;2.75;0.93;;;;;;;25.33;47.52;101833.47;5012255;28;20061;-59
2021/04/13 10:36:24;;;;;;;2.03;0.90;;;;;;;25.26;47.30;101838.06;5011121;28;20080;-61
2021/04/13 10:39:25;;;;;;;2.22;1.23;;;;;;;25.53;47.46;101857.59;5010517;28;20077;-59
2021/04/13 10:42:12;;;;;;;3.40;1.23;;;;;;;25.58;48.16;101842.22;5010705;28;20034;-59
2021/04/13 10:45:18;;;;;;;2.55;1.20;;;;;;;25.63;48.95;101844.38;5011000;28;20026;-60
2021/04/13 10:48:02;;;;;;;3.97;1.75;;;;;;;25.64;49.06;101852.44;5010463;28;20065;-60
2021/04/13 10:50:55;;;;;;;2.45;1.15;;;;;;;25.65;49.03;101836.78;5010709;28;20053;-59
2021/04/13 10:53:40;;;;;;;2.55;1.42;;;;;;;25.64;49.34;101846.09;5008350;28;20065;-60
2021/04/13 10:56:47;;;;;;;3.20;1.52;;;;;;;25.61;49.80;101852.00;5009480;28;20080;-59
2021/04/13 10:59:30;;;;;;;2.45;1.38;;;;;;;25.63;49.38;101855.41;5005547;28;20032;-59
2021/04/13 11:02:13;;;;;;;2.42;1.20;;;;;;;25.64;49.77;101862.63;5010024;28;20041;-60
2021/04/13 11:05:05;;;;;;;4.32;1.63;;;;;;;25.63;50.46;101870.03;5010584;28;20689;-60
2021/04/13 11:08:47;;;;;;;1.77;1.17;;;;;;;25.54;50.37;101884.13;5038584;28;20047;-60
2021/04/13 11:11:36;;;;;;;6.68;1.92;;;;;;;25.61;49.57;101880.38;5011302;28;20096;-60
2021/04/13 11:14:22;;;;;;;4.28;1.45;;;;;;;25.65;49.49;101875.34;5016799;28;20077;-60
2021/04/13 11:17:22;;;;;;;2.72;1.48;;;;;;;25.64;49.80;101868.13;5025007;28;20050;-60
2021/04/13 11:20:08;;;;;;;3.67;1.63;;;;;;;25.67;50.32;101874.09;5031147;28;20029;-60
2021/04/13 11:23:10;;;;;;;4.43;1.63;;;;;;;25.68;49.89;101880.47;5022756;28;20515;-60
2021/04/13 11:25:50;;;;;;;5.70;1.77;;;;;;;25.68;49.94;101874.97;5022831;28;20408;-60
2021/04/13 11:28:52;;;;;;;4.88;2.00;;;;;;;25.68;50.25;101875.81;5015729;28;20034;-61
2021/04/13 11:31:30;;;;;;;3.95;1.80;;;;;;;25.68;49.96;101875.81;5016650;28;20147;-60
2021/04/13 11:34:35;;;;;;;3.80;1.77;;;;;;;25.72;50.09;101868.03;5028108;28;20468;-59
2021/04/13 11:37:14;;;;;;;3.95;1.88;;;;;;;25.73;50.27;101869.75;5010118;28;20051;-60
2021/04/13 11:39:47;;;;;;;3.17;1.40;;;;;;;25.76;50.52;101864.69;5009623;28;20089;-61
2021/04/13 11:42:15;;;;;;;4.13;1.70;;;;;;;25.80;49.39;101873.41;5023725;28;20049;-60
2021/04/13 11:44:46;;;;;;;3.70;1.70;;;;;;;25.73;49.82;101861.47;5051337;28;20108;-60
2021/04/13 11:47:22;;;;;;;3.45;1.70;;;;;;;25.68;50.98;101863.94;5051100;28;20128;-60
2021/04/13 11:50:06;;;;;;;2.28;1.40;;;;;;;25.67;49.68;101862.22;5051052;28;20055;-61
2021/04/13 11:52:44;;;;;;;3.55;1.63;;;;;;;25.67;50.41;101875.97;5055791;28;20074;-60
2021/04/13 11:55:27;;;;;;;1.70;1.20;;;;;;;25.64;50.18;101881.88;5052423;28;20090;-60
2021/04/13 11:58:34;;;;;;;3.60;1.70;;;;;;;25.64;49.71;101874.47;5051734;28;20040;-59
2021/04/13 12:01:17;;;;;;;3.35;1.50;;;;;;;25.65;49.86;101875.34;5037892;28;20044;-59
2021/04/13 12:03:59;;;;;;;2.53;1.50;;;;;;;25.65;48.80;101880.84;5050731;28;20025;-60
2021/04/13 12:06:54;;;;;;;2.80;1.52;;;;;;;25.69;48.37;101884.94;5051255;28;20539;-60
2021/04/13 12:09:59;;;;;;;3.40;1.48;;;;;;;25.67;49.02;101887.00;5040427;28;20175;-60